sensor_id;sensor_type;location;lat;lon;timestamp;P1;durP1;ratioP1;P2;durP2;ratioP2
26820;SDS011;37186;51.394;5.454;2022-09-12T00:02:52;9.00;;;8.70;;
26820;SDS011;37186;51.394;5.454;2022-09-12T00:05:54;8.13;;;7.93;;
26820;SDS011;37186;51.394;5.454;2022-09-12T00:08:55;8.82;;;8.57;;
26820;SDS011;37186;51.394;5.454;2022-09-12T00:11:57;9.00;;;8.70;;
26820;SDS011;37186;51.394;5.454;2022-09-12T00:14:58;8.70;;;8.50;;
26820;SDS011;37186;51.394;5.454;2022-09-12T00:17:59;8.57;;;8.38;;
26820;SDS011;37186;51.394;5.454;2022-09-12T00:21:03;8.85;;;8.60;;
26820;SDS011;37186;51.394;5.454;2022-09-12T00:24:04;8.32;;;8.13;;
26820;SDS011;37186;51.394;5.454;2022-09-12T00:27:05;8.15;;;7.95;;
26820;SDS011;37186;51.394;5.454;2022-09-12T00:30:06;8.32;;;8.13;;
26820;SDS011;37186;51.394;5.454;2022-09-12T00:33:07;8.27;;;8.07;;
26820;SDS011;37186;51.394;5.454;2022-09-12T00:36:09;8.10;;;7.90;;
26820;SDS011;37186;51.394;5.454;2022-09-12T00:39:14;7.95;;;7.75;;
26820;SDS011;37186;51.394;5.454;2022-09-12T00:42:16;7.90;;;7.70;;
26820;SDS011;37186;51.394;5.454;2022-09-12T00:45:19;7.47;;;7.28;;
26820;SDS011;37186;51.394;5.454;2022-09-12T00:48:35;7.25;;;7.05;;
26820;SDS011;37186;51.394;5.454;2022-09-12T00:51:43;7.05;;;6.85;;
26820;SDS011;37186;51.394;5.454;2022-09-12T00:54:53;6.97;;;6.78;;
26820;SDS011;37186;51.394;5.454;2022-09-12T00:58:00;7.10;;;6.90;;
26820;SDS011;37186;51.394;5.454;2022-09-12T01:01:04;7.07;;;6.88;;
26820;SDS011;37186;51.394;5.454;2022-09-12T01:04:05;6.85;;;6.65;;
26820;SDS011;37186;51.394;5.454;2022-09-12T01:07:07;7.10;;;6.90;;
26820;SDS011;37186;51.394;5.454;2022-09-12T01:10:08;7.32;;;7.13;;
26820;SDS011;37186;51.394;5.454;2022-09-12T01:13:09;7.10;;;6.90;;
26820;SDS011;37186;51.394;5.454;2022-09-12T01:16:10;6.82;;;6.63;;
26820;SDS011;37186;51.394;5.454;2022-09-12T01:26:01;6.57;;;6.38;;
26820;SDS011;37186;51.394;5.454;2022-09-12T01:29:13;6.55;;;6.35;;
26820;SDS011;37186;51.394;5.454;2022-09-12T01:39:42;6.43;;;6.22;;
26820;SDS011;37186;51.394;5.454;2022-09-12T01:46:26;6.43;;;6.22;;
26820;SDS011;37186;51.394;5.454;2022-09-12T01:53:01;6.60;;;6.40;;
26820;SDS011;37186;51.394;5.454;2022-09-12T01:56:25;6.40;;;6.20;;
26820;SDS011;37186;51.394;5.454;2022-09-12T01:59:29;6.22;;;6.03;;
26820;SDS011;37186;51.394;5.454;2022-09-12T02:02:38;6.35;;;6.15;;
26820;SDS011;37186;51.394;5.454;2022-09-12T02:05:50;6.57;;;6.38;;
26820;SDS011;37186;51.394;5.454;2022-09-12T02:09:00;6.50;;;6.30;;
26820;SDS011;37186;51.394;5.454;2022-09-12T02:12:05;6.72;;;6.53;;
26820;SDS011;37186;51.394;5.454;2022-09-12T02:15:09;6.50;;;6.30;;
26820;SDS011;37186;51.394;5.454;2022-09-12T02:18:15;6.25;;;6.05;;
26820;SDS011;37186;51.394;5.454;2022-09-12T02:21:18;6.38;;;6.18;;
26820;SDS011;37186;51.394;5.454;2022-09-12T02:24:21;6.47;;;6.28;;
26820;SDS011;37186;51.394;5.454;2022-09-12T02:28:25;6.45;;;6.25;;
26820;SDS011;37186;51.394;5.454;2022-09-12T02:31:07;6.20;;;6.00;;
26820;SDS011;37186;51.394;5.454;2022-09-12T02:38:05;6.18;;;5.97;;
26820;SDS011;37186;51.394;5.454;2022-09-12T02:41:09;6.38;;;6.18;;
26820;SDS011;37186;51.394;5.454;2022-09-12T02:44:12;6.63;;;6.43;;
26820;SDS011;37186;51.394;5.454;2022-09-12T02:47:22;6.97;;;6.78;;
26820;SDS011;37186;51.394;5.454;2022-09-12T02:50:24;6.47;;;6.28;;
26820;SDS011;37186;51.394;5.454;2022-09-12T02:53:25;6.70;;;6.50;;
26820;SDS011;37186;51.394;5.454;2022-09-12T02:56:29;7.03;;;6.82;;
26820;SDS011;37186;51.394;5.454;2022-09-12T02:59:30;6.80;;;6.60;;
26820;SDS011;37186;51.394;5.454;2022-09-12T03:05:58;6.85;;;6.65;;
26820;SDS011;37186;51.394;5.454;2022-09-12T03:09:18;6.95;;;6.75;;
26820;SDS011;37186;51.394;5.454;2022-09-12T03:15:44;6.45;;;6.25;;
26820;SDS011;37186;51.394;5.454;2022-09-12T03:19:01;6.82;;;6.63;;
26820;SDS011;37186;51.394;5.454;2022-09-12T03:22:11;6.50;;;6.30;;
26820;SDS011;37186;51.394;5.454;2022-09-12T03:25:15;6.65;;;6.45;;
26820;SDS011;37186;51.394;5.454;2022-09-12T03:28:19;6.70;;;6.50;;
26820;SDS011;37186;51.394;5.454;2022-09-12T03:31:21;6.40;;;6.20;;
26820;SDS011;37186;51.394;5.454;2022-09-12T03:34:23;6.60;;;6.40;;
26820;SDS011;37186;51.394;5.454;2022-09-12T03:37:25;6.80;;;6.60;;
26820;SDS011;37186;51.394;5.454;2022-09-12T03:40:25;6.75;;;6.55;;
26820;SDS011;37186;51.394;5.454;2022-09-12T03:43:26;6.80;;;6.60;;
26820;SDS011;37186;51.394;5.454;2022-09-12T03:46:26;7.22;;;7.03;;
26820;SDS011;37186;51.394;5.454;2022-09-12T03:49:27;6.63;;;6.43;;
26820;SDS011;37186;51.394;5.454;2022-09-12T03:52:27;7.00;;;6.80;;
26820;SDS011;37186;51.394;5.454;2022-09-12T03:55:28;7.00;;;6.80;;
26820;SDS011;37186;51.394;5.454;2022-09-12T03:58:29;7.28;;;7.07;;
26820;SDS011;37186;51.394;5.454;2022-09-12T04:01:30;7.50;;;7.30;;
26820;SDS011;37186;51.394;5.454;2022-09-12T04:04:30;6.70;;;6.50;;
26820;SDS011;37186;51.394;5.454;2022-09-12T04:07:31;6.85;;;6.65;;
26820;SDS011;37186;51.394;5.454;2022-09-12T04:10:32;6.95;;;6.75;;
26820;SDS011;37186;51.394;5.454;2022-09-12T04:13:33;7.22;;;7.03;;
26820;SDS011;37186;51.394;5.454;2022-09-12T04:16:35;7.53;;;7.32;;
26820;SDS011;37186;51.394;5.454;2022-09-12T04:19:35;7.60;;;7.40;;
26820;SDS011;37186;51.394;5.454;2022-09-12T04:22:36;7.55;;;7.35;;
26820;SDS011;37186;51.394;5.454;2022-09-12T04:25:36;7.45;;;7.25;;
26820;SDS011;37186;51.394;5.454;2022-09-12T04:28:37;7.55;;;7.35;;
26820;SDS011;37186;51.394;5.454;2022-09-12T04:31:38;7.38;;;7.18;;
26820;SDS011;37186;51.394;5.454;2022-09-12T04:34:38;7.40;;;7.20;;
26820;SDS011;37186;51.394;5.454;2022-09-12T04:37:39;7.43;;;7.22;;
26820;SDS011;37186;51.394;5.454;2022-09-12T04:40:39;7.32;;;7.13;;
26820;SDS011;37186;51.394;5.454;2022-09-12T04:43:40;7.60;;;7.40;;
26820;SDS011;37186;51.394;5.454;2022-09-12T04:46:43;7.50;;;7.30;;
26820;SDS011;37186;51.394;5.454;2022-09-12T04:49:47;7.38;;;7.18;;
26820;SDS011;37186;51.394;5.454;2022-09-12T04:52:49;7.70;;;7.50;;
26820;SDS011;37186;51.394;5.454;2022-09-12T04:55:50;7.65;;;7.45;;
26820;SDS011;37186;51.394;5.454;2022-09-12T04:58:51;7.03;;;6.82;;
26820;SDS011;37186;51.394;5.454;2022-09-12T05:01:52;8.00;;;7.80;;
26820;SDS011;37186;51.394;5.454;2022-09-12T05:04:52;7.80;;;7.60;;
26820;SDS011;37186;51.394;5.454;2022-09-12T05:07:53;7.80;;;7.60;;
26820;SDS011;37186;51.394;5.454;2022-09-12T05:10:53;7.47;;;7.28;;
26820;SDS011;37186;51.394;5.454;2022-09-12T05:13:54;7.75;;;7.55;;
26820;SDS011;37186;51.394;5.454;2022-09-12T05:16:54;7.68;;;7.47;;
26820;SDS011;37186;51.394;5.454;2022-09-12T05:19:58;7.65;;;7.45;;
26820;SDS011;37186;51.394;5.454;2022-09-12T05:22:59;7.55;;;7.35;;
26820;SDS011;37186;51.394;5.454;2022-09-12T05:26:00;7.50;;;7.30;;
26820;SDS011;37186;51.394;5.454;2022-09-12T05:29:02;7.85;;;7.65;;
26820;SDS011;37186;51.394;5.454;2022-09-12T05:32:04;7.13;;;6.93;;
26820;SDS011;37186;51.394;5.454;2022-09-12T05:35:05;7.43;;;7.23;;
26820;SDS011;37186;51.394;5.454;2022-09-12T05:38:06;7.30;;;7.10;;
26820;SDS011;37186;51.394;5.454;2022-09-12T05:41:11;7.80;;;7.60;;
26820;SDS011;37186;51.394;5.454;2022-09-12T05:44:13;7.47;;;7.28;;
26820;SDS011;37186;51.394;5.454;2022-09-12T05:47:14;7.60;;;7.40;;
26820;SDS011;37186;51.394;5.454;2022-09-12T05:50:16;7.53;;;7.32;;
26820;SDS011;37186;51.394;5.454;2022-09-12T05:53:16;7.80;;;7.60;;
26820;SDS011;37186;51.394;5.454;2022-09-12T05:56:20;7.47;;;7.28;;
26820;SDS011;37186;51.394;5.454;2022-09-12T05:59:22;7.90;;;7.70;;
26820;SDS011;37186;51.394;5.454;2022-09-12T06:02:23;7.30;;;7.10;;
26820;SDS011;37186;51.394;5.454;2022-09-12T06:05:23;7.25;;;7.05;;
26820;SDS011;37186;51.394;5.454;2022-09-12T06:08:25;7.47;;;7.28;;
26820;SDS011;37186;51.394;5.454;2022-09-12T06:11:27;7.55;;;7.35;;
26820;SDS011;37186;51.394;5.454;2022-09-12T06:14:28;7.13;;;6.93;;
26820;SDS011;37186;51.394;5.454;2022-09-12T06:17:29;7.30;;;7.10;;
26820;SDS011;37186;51.394;5.454;2022-09-12T06:20:29;7.03;;;6.82;;
26820;SDS011;37186;51.394;5.454;2022-09-12T06:23:30;7.40;;;7.20;;
26820;SDS011;37186;51.394;5.454;2022-09-12T06:26:31;7.13;;;6.93;;
26820;SDS011;37186;51.394;5.454;2022-09-12T06:29:32;7.40;;;7.20;;
26820;SDS011;37186;51.394;5.454;2022-09-12T06:32:32;7.13;;;6.93;;
26820;SDS011;37186;51.394;5.454;2022-09-12T06:35:37;6.93;;;6.72;;
26820;SDS011;37186;51.394;5.454;2022-09-12T06:38:37;6.75;;;6.55;;
26820;SDS011;37186;51.394;5.454;2022-09-12T06:41:39;6.60;;;6.40;;
26820;SDS011;37186;51.394;5.454;2022-09-12T06:44:40;6.25;;;6.05;;
26820;SDS011;37186;51.394;5.454;2022-09-12T06:47:40;6.82;;;6.63;;
26820;SDS011;37186;51.394;5.454;2022-09-12T06:50:41;7.43;;;7.22;;
26820;SDS011;37186;51.394;5.454;2022-09-12T06:53:42;7.07;;;6.88;;
26820;SDS011;37186;51.394;5.454;2022-09-12T06:56:43;7.05;;;6.85;;
26820;SDS011;37186;51.394;5.454;2022-09-12T06:59:44;6.97;;;6.78;;
26820;SDS011;37186;51.394;5.454;2022-09-12T07:02:45;7.07;;;6.88;;
26820;SDS011;37186;51.394;5.454;2022-09-12T07:05:45;7.32;;;7.13;;
26820;SDS011;37186;51.394;5.454;2022-09-12T07:08:46;7.05;;;6.85;;
26820;SDS011;37186;51.394;5.454;2022-09-12T07:11:47;7.05;;;6.85;;
26820;SDS011;37186;51.394;5.454;2022-09-12T07:14:47;7.03;;;6.82;;
26820;SDS011;37186;51.394;5.454;2022-09-12T07:17:48;6.82;;;6.63;;
26820;SDS011;37186;51.394;5.454;2022-09-12T07:20:49;7.32;;;7.13;;
26820;SDS011;37186;51.394;5.454;2022-09-12T07:23:49;6.95;;;6.75;;
26820;SDS011;37186;51.394;5.454;2022-09-12T07:26:55;7.07;;;6.88;;
26820;SDS011;37186;51.394;5.454;2022-09-12T07:29:56;7.43;;;7.22;;
26820;SDS011;37186;51.394;5.454;2022-09-12T07:32:57;7.15;;;6.95;;
26820;SDS011;37186;51.394;5.454;2022-09-12T07:36:04;7.18;;;6.97;;
26820;SDS011;37186;51.394;5.454;2022-09-12T07:39:07;7.20;;;7.00;;
26820;SDS011;37186;51.394;5.454;2022-09-12T07:42:08;7.05;;;6.85;;
26820;SDS011;37186;51.394;5.454;2022-09-12T07:45:11;7.13;;;6.93;;
26820;SDS011;37186;51.394;5.454;2022-09-12T07:48:11;7.40;;;7.20;;
26820;SDS011;37186;51.394;5.454;2022-09-12T07:51:12;7.65;;;7.45;;
26820;SDS011;37186;51.394;5.454;2022-09-12T07:54:13;7.65;;;7.45;;
26820;SDS011;37186;51.394;5.454;2022-09-12T07:57:14;7.75;;;7.55;;
26820;SDS011;37186;51.394;5.454;2022-09-12T08:00:15;7.90;;;7.70;;
26820;SDS011;37186;51.394;5.454;2022-09-12T08:03:16;8.55;;;8.32;;
26820;SDS011;37186;51.394;5.454;2022-09-12T08:06:18;8.48;;;8.25;;
26820;SDS011;37186;51.394;5.454;2022-09-12T08:09:20;8.65;;;8.43;;
26820;SDS011;37186;51.394;5.454;2022-09-12T08:12:20;9.35;;;9.05;;
26820;SDS011;37186;51.394;5.454;2022-09-12T08:15:21;9.60;;;9.30;;
26820;SDS011;37186;51.394;5.454;2022-09-12T08:18:21;9.57;;;9.27;;
26820;SDS011;37186;51.394;5.454;2022-09-12T08:21:23;10.10;;;9.80;;
26820;SDS011;37186;51.394;5.454;2022-09-12T08:24:24;9.63;;;9.32;;
26820;SDS011;37186;51.394;5.454;2022-09-12T08:27:25;9.70;;;9.40;;
26820;SDS011;37186;51.394;5.454;2022-09-12T08:30:26;9.80;;;9.50;;
26820;SDS011;37186;51.394;5.454;2022-09-12T08:33:27;9.30;;;9.00;;
26820;SDS011;37186;51.394;5.454;2022-09-12T08:36:32;9.18;;;8.88;;
26820;SDS011;37186;51.394;5.454;2022-09-12T08:39:33;9.38;;;9.07;;
26820;SDS011;37186;51.394;5.454;2022-09-12T08:42:43;10.10;;;9.80;;
26820;SDS011;37186;51.394;5.454;2022-09-12T08:45:53;9.45;;;9.15;;
26820;SDS011;37186;51.394;5.454;2022-09-12T08:49:22;9.38;;;9.07;;
26820;SDS011;37186;51.394;5.454;2022-09-12T08:55:58;8.68;;;8.48;;
26820;SDS011;37186;51.394;5.454;2022-09-12T08:58:59;9.35;;;9.05;;
26820;SDS011;37186;51.394;5.454;2022-09-12T09:01:59;9.20;;;8.90;;
26820;SDS011;37186;51.394;5.454;2022-09-12T09:05:11;9.40;;;9.10;;
26820;SDS011;37186;51.394;5.454;2022-09-12T09:11:46;9.40;;;9.10;;
26820;SDS011;37186;51.394;5.454;2022-09-12T09:18:17;9.10;;;8.80;;
26820;SDS011;37186;51.394;5.454;2022-09-12T09:21:24;9.77;;;9.48;;
26820;SDS011;37186;51.394;5.454;2022-09-12T09:24:36;10.27;;;9.98;;
26820;SDS011;37186;51.394;5.454;2022-09-12T09:27:41;10.68;;;10.38;;
26820;SDS011;37186;51.394;5.454;2022-09-12T09:30:45;12.00;;;11.63;;
26820;SDS011;37186;51.394;5.454;2022-09-12T09:33:51;12.93;;;12.52;;
26820;SDS011;37186;51.394;5.454;2022-09-12T09:43:24;11.55;;;11.23;;
26820;SDS011;37186;51.394;5.454;2022-09-12T09:46:28;13.20;;;12.80;;
26820;SDS011;37186;51.394;5.454;2022-09-12T09:49:30;12.65;;;12.25;;
26820;SDS011;37186;51.394;5.454;2022-09-12T09:52:32;12.82;;;12.43;;
26820;SDS011;37186;51.394;5.454;2022-09-12T09:55:37;12.55;;;12.15;;
26820;SDS011;37186;51.394;5.454;2022-09-12T09:58:41;9.45;;;9.15;;
26820;SDS011;37186;51.394;5.454;2022-09-12T10:04:56;10.32;;;10.02;;
26820;SDS011;37186;51.394;5.454;2022-09-12T10:07:57;9.82;;;9.52;;
26820;SDS011;37186;51.394;5.454;2022-09-12T10:11:00;10.50;;;10.20;;
26820;SDS011;37186;51.394;5.454;2022-09-12T10:14:03;10.80;;;10.50;;
26820;SDS011;37186;51.394;5.454;2022-09-12T10:17:23;10.38;;;10.07;;
26820;SDS011;37186;51.394;5.454;2022-09-12T10:20:39;10.60;;;10.30;;
26820;SDS011;37186;51.394;5.454;2022-09-12T10:23:43;10.70;;;10.40;;
26820;SDS011;37186;51.394;5.454;2022-09-12T10:26:47;12.90;;;12.50;;
26820;SDS011;37186;51.394;5.454;2022-09-12T10:29:55;10.57;;;10.27;;
26820;SDS011;37186;51.394;5.454;2022-09-12T10:33:05;11.57;;;11.25;;
26820;SDS011;37186;51.394;5.454;2022-09-12T10:36:10;11.63;;;11.30;;
26820;SDS011;37186;51.394;5.454;2022-09-12T10:39:14;11.73;;;11.40;;
26820;SDS011;37186;51.394;5.454;2022-09-12T10:42:39;11.68;;;11.38;;
26820;SDS011;37186;51.394;5.454;2022-09-12T10:45:49;12.02;;;11.65;;
26820;SDS011;37186;51.394;5.454;2022-09-12T10:52:22;11.45;;;11.15;;
26820;SDS011;37186;51.394;5.454;2022-09-12T10:55:26;12.90;;;12.50;;
26820;SDS011;37186;51.394;5.454;2022-09-12T10:58:34;11.80;;;11.45;;
26820;SDS011;37186;51.394;5.454;2022-09-12T11:01:49;13.93;;;13.52;;
26820;SDS011;37186;51.394;5.454;2022-09-12T11:18:29;13.68;;;13.27;;
26820;SDS011;37186;51.394;5.454;2022-09-12T11:22:09;13.35;;;12.95;;
26820;SDS011;37186;51.394;5.454;2022-09-12T11:32:09;14.85;;;14.35;;
26820;SDS011;37186;51.394;5.454;2022-09-12T11:35:29;15.25;;;14.75;;
26820;SDS011;37186;51.394;5.454;2022-09-12T11:38:44;16.55;;;16.02;;
26820;SDS011;37186;51.394;5.454;2022-09-12T11:42:02;17.35;;;16.85;;
26820;SDS011;37186;51.394;5.454;2022-09-12T11:45:15;17.02;;;16.52;;
26820;SDS011;37186;51.394;5.454;2022-09-12T11:51:40;15.90;;;15.40;;
26820;SDS011;37186;51.394;5.454;2022-09-12T11:54:57;16.60;;;16.10;;
26820;SDS011;37186;51.394;5.454;2022-09-12T11:58:06;18.55;;;17.95;;
26820;SDS011;37186;51.394;5.454;2022-09-12T12:01:13;19.63;;;19.02;;
26820;SDS011;37186;51.394;5.454;2022-09-12T12:04:17;20.60;;;19.92;;
26820;SDS011;37186;51.394;5.454;2022-09-12T12:07:24;21.60;;;20.90;;
26820;SDS011;37186;51.394;5.454;2022-09-12T12:13:32;22.63;;;21.88;;
26820;SDS011;37186;51.394;5.454;2022-09-12T12:16:39;22.70;;;21.95;;
26820;SDS011;37186;51.394;5.454;2022-09-12T12:19:41;24.60;;;23.80;;
26820;SDS011;37186;51.394;5.454;2022-09-12T12:22:52;24.83;;;24.02;;
26820;SDS011;37186;51.394;5.454;2022-09-12T12:25:57;27.85;;;26.95;;
26820;SDS011;37186;51.394;5.454;2022-09-12T12:28:59;26.08;;;25.23;;
26820;SDS011;37186;51.394;5.454;2022-09-12T12:35:35;26.95;;;26.05;;
26820;SDS011;37186;51.394;5.454;2022-09-12T12:38:50;25.33;;;24.50;;
26820;SDS011;37186;51.394;5.454;2022-09-12T12:41:50;25.13;;;24.33;;
26820;SDS011;37186;51.394;5.454;2022-09-12T12:44:51;23.25;;;22.48;;
26820;SDS011;37186;51.394;5.454;2022-09-12T12:48:01;22.42;;;21.73;;
26820;SDS011;37186;51.394;5.454;2022-09-12T12:57:50;16.80;;;16.30;;
26820;SDS011;37186;51.394;5.454;2022-09-12T13:01:14;22.23;;;21.52;;
26820;SDS011;37186;51.394;5.454;2022-09-12T13:04:19;21.65;;;20.95;;
26820;SDS011;37186;51.394;5.454;2022-09-12T13:07:33;18.50;;;17.90;;
26820;SDS011;37186;51.394;5.454;2022-09-12T13:10:36;20.02;;;19.42;;
26820;SDS011;37186;51.394;5.454;2022-09-12T13:13:38;19.08;;;18.48;;
26820;SDS011;37186;51.394;5.454;2022-09-12T13:16:52;18.63;;;18.02;;
26820;SDS011;37186;51.394;5.454;2022-09-12T13:23:21;17.40;;;16.88;;
26820;SDS011;37186;51.394;5.454;2022-09-12T13:26:24;18.08;;;17.48;;
26820;SDS011;37186;51.394;5.454;2022-09-12T13:29:25;18.02;;;17.42;;
26820;SDS011;37186;51.394;5.454;2022-09-12T13:32:27;18.80;;;18.20;;
26820;SDS011;37186;51.394;5.454;2022-09-12T13:42:41;18.98;;;18.38;;
26820;SDS011;37186;51.394;5.454;2022-09-12T13:45:47;18.48;;;17.88;;
26820;SDS011;37186;51.394;5.454;2022-09-12T13:48:48;19.60;;;19.00;;
26820;SDS011;37186;51.394;5.454;2022-09-12T13:51:57;18.38;;;17.77;;
26820;SDS011;37186;51.394;5.454;2022-09-12T13:55:01;17.98;;;17.38;;
26820;SDS011;37186;51.394;5.454;2022-09-12T13:58:18;17.55;;;16.98;;
26820;SDS011;37186;51.394;5.454;2022-09-12T14:01:19;14.73;;;14.25;;
26820;SDS011;37186;51.394;5.454;2022-09-12T14:04:22;19.55;;;18.90;;
26820;SDS011;37186;51.394;5.454;2022-09-12T14:07:46;17.75;;;17.15;;
26820;SDS011;37186;51.394;5.454;2022-09-12T14:10:54;18.20;;;17.60;;
26820;SDS011;37186;51.394;5.454;2022-09-12T14:13:55;18.15;;;17.55;;
26820;SDS011;37186;51.394;5.454;2022-09-12T14:16:59;18.10;;;17.50;;
26820;SDS011;37186;51.394;5.454;2022-09-12T14:20:04;17.90;;;17.30;;
26820;SDS011;37186;51.394;5.454;2022-09-12T14:23:23;17.92;;;17.33;;
26820;SDS011;37186;51.394;5.454;2022-09-12T14:26:29;18.55;;;17.95;;
26820;SDS011;37186;51.394;5.454;2022-09-12T14:29:33;15.48;;;14.98;;
26820;SDS011;37186;51.394;5.454;2022-09-12T14:32:34;14.20;;;13.80;;
26820;SDS011;37186;51.394;5.454;2022-09-12T14:35:41;15.93;;;15.43;;
26820;SDS011;37186;51.394;5.454;2022-09-12T14:38:44;15.77;;;15.27;;
26820;SDS011;37186;51.394;5.454;2022-09-12T14:41:48;14.60;;;14.15;;
26820;SDS011;37186;51.394;5.454;2022-09-12T14:45:00;14.65;;;14.18;;
26820;SDS011;37186;51.394;5.454;2022-09-12T14:48:13;15.20;;;14.70;;
26820;SDS011;37186;51.394;5.454;2022-09-12T14:51:19;15.20;;;14.70;;
26820;SDS011;37186;51.394;5.454;2022-09-12T14:54:35;15.50;;;15.00;;
26820;SDS011;37186;51.394;5.454;2022-09-12T14:57:38;15.68;;;15.18;;
26820;SDS011;37186;51.394;5.454;2022-09-12T15:00:56;15.38;;;14.88;;
26820;SDS011;37186;51.394;5.454;2022-09-12T15:04:01;16.20;;;15.70;;
26820;SDS011;37186;51.394;5.454;2022-09-12T15:07:12;15.77;;;15.27;;
26820;SDS011;37186;51.394;5.454;2022-09-12T15:10:23;16.52;;;16.02;;
26820;SDS011;37186;51.394;5.454;2022-09-12T15:13:37;15.68;;;15.18;;
26820;SDS011;37186;51.394;5.454;2022-09-12T15:16:39;17.98;;;17.38;;
26820;SDS011;37186;51.394;5.454;2022-09-12T15:19:40;18.60;;;18.00;;
26820;SDS011;37186;51.394;5.454;2022-09-12T15:22:40;18.98;;;18.38;;
26820;SDS011;37186;51.394;5.454;2022-09-12T15:25:41;18.27;;;17.67;;
26820;SDS011;37186;51.394;5.454;2022-09-12T15:28:42;15.98;;;15.48;;
26820;SDS011;37186;51.394;5.454;2022-09-12T15:31:44;15.75;;;15.25;;
26820;SDS011;37186;51.394;5.454;2022-09-12T15:34:46;15.73;;;15.23;;
26820;SDS011;37186;51.394;5.454;2022-09-12T15:37:46;17.83;;;17.23;;
26820;SDS011;37186;51.394;5.454;2022-09-12T15:40:48;17.88;;;17.27;;
26820;SDS011;37186;51.394;5.454;2022-09-12T15:43:52;18.67;;;18.08;;
26820;SDS011;37186;51.394;5.454;2022-09-12T15:46:53;18.40;;;17.80;;
26820;SDS011;37186;51.394;5.454;2022-09-12T15:49:53;17.67;;;17.10;;
26820;SDS011;37186;51.394;5.454;2022-09-12T15:52:54;19.73;;;19.10;;
26820;SDS011;37186;51.394;5.454;2022-09-12T15:55:54;19.15;;;18.55;;
26820;SDS011;37186;51.394;5.454;2022-09-12T15:58:55;19.35;;;18.75;;
26820;SDS011;37186;51.394;5.454;2022-09-12T16:01:56;19.05;;;18.45;;
26820;SDS011;37186;51.394;5.454;2022-09-12T16:04:57;21.13;;;20.42;;
26820;SDS011;37186;51.394;5.454;2022-09-12T16:07:57;21.50;;;20.80;;
26820;SDS011;37186;51.394;5.454;2022-09-12T16:11:00;23.45;;;22.65;;
26820;SDS011;37186;51.394;5.454;2022-09-12T16:14:04;21.25;;;20.55;;
26820;SDS011;37186;51.394;5.454;2022-09-12T16:17:04;22.10;;;21.40;;
26820;SDS011;37186;51.394;5.454;2022-09-12T16:20:05;21.50;;;20.80;;
26820;SDS011;37186;51.394;5.454;2022-09-12T16:23:10;20.63;;;19.92;;
26820;SDS011;37186;51.394;5.454;2022-09-12T16:26:12;22.25;;;21.52;;
26820;SDS011;37186;51.394;5.454;2022-09-12T16:29:13;31.17;;;30.08;;
26820;SDS011;37186;51.394;5.454;2022-09-12T16:32:13;31.58;;;30.48;;
26820;SDS011;37186;51.394;5.454;2022-09-12T16:35:14;43.38;;;41.78;;
26820;SDS011;37186;51.394;5.454;2022-09-12T16:38:14;61.75;;;59.38;;
26820;SDS011;37186;51.394;5.454;2022-09-12T16:41:15;66.53;;;63.95;;
26820;SDS011;37186;51.394;5.454;2022-09-12T16:44:17;63.88;;;61.42;;
26820;SDS011;37186;51.394;5.454;2022-09-12T16:47:17;62.05;;;59.65;;
26820;SDS011;37186;51.394;5.454;2022-09-12T16:50:18;59.55;;;57.25;;
26820;SDS011;37186;51.394;5.454;2022-09-12T16:53:19;58.33;;;56.13;;
26820;SDS011;37186;51.394;5.454;2022-09-12T16:56:19;52.20;;;50.22;;
26820;SDS011;37186;51.394;5.454;2022-09-12T16:59:20;58.63;;;56.35;;
26820;SDS011;37186;51.394;5.454;2022-09-12T17:02:21;54.72;;;52.65;;
26820;SDS011;37186;51.394;5.454;2022-09-12T17:05:21;49.20;;;47.38;;
26820;SDS011;37186;51.394;5.454;2022-09-12T17:08:22;43.35;;;41.78;;
26820;SDS011;37186;51.394;5.454;2022-09-12T17:11:24;38.53;;;37.13;;
26820;SDS011;37186;51.394;5.454;2022-09-12T17:14:28;32.95;;;31.77;;
26820;SDS011;37186;51.394;5.454;2022-09-12T17:17:29;33.58;;;32.38;;
26820;SDS011;37186;51.394;5.454;2022-09-12T17:20:29;33.00;;;31.85;;
26820;SDS011;37186;51.394;5.454;2022-09-12T17:23:30;36.33;;;35.03;;
26820;SDS011;37186;51.394;5.454;2022-09-12T17:26:31;36.13;;;34.83;;
26820;SDS011;37186;51.394;5.454;2022-09-12T17:29:32;38.65;;;37.28;;
26820;SDS011;37186;51.394;5.454;2022-09-12T17:32:34;39.30;;;37.90;;
26820;SDS011;37186;51.394;5.454;2022-09-12T17:35:34;38.72;;;37.38;;
26820;SDS011;37186;51.394;5.454;2022-09-12T17:38:36;42.90;;;41.38;;
26820;SDS011;37186;51.394;5.454;2022-09-12T17:41:38;40.95;;;39.50;;
26820;SDS011;37186;51.394;5.454;2022-09-12T17:44:41;37.97;;;36.67;;
26820;SDS011;37186;51.394;5.454;2022-09-12T17:47:42;40.13;;;38.72;;
26820;SDS011;37186;51.394;5.454;2022-09-12T17:50:42;36.38;;;35.08;;
26820;SDS011;37186;51.394;5.454;2022-09-12T17:53:44;34.75;;;33.55;;
26820;SDS011;37186;51.394;5.454;2022-09-12T17:56:45;34.38;;;33.17;;
26820;SDS011;37186;51.394;5.454;2022-09-12T17:59:48;33.60;;;32.40;;
26820;SDS011;37186;51.394;5.454;2022-09-12T18:02:49;31.23;;;30.13;;
26820;SDS011;37186;51.394;5.454;2022-09-12T18:05:53;30.55;;;29.48;;
26820;SDS011;37186;51.394;5.454;2022-09-12T18:08:55;28.67;;;27.67;;
26820;SDS011;37186;51.394;5.454;2022-09-12T18:11:59;25.67;;;24.80;;
26820;SDS011;37186;51.394;5.454;2022-09-12T18:14:59;27.15;;;26.25;;
26820;SDS011;37186;51.394;5.454;2022-09-12T18:18:00;25.55;;;24.65;;
26820;SDS011;37186;51.394;5.454;2022-09-12T18:21:02;25.50;;;24.60;;
26820;SDS011;37186;51.394;5.454;2022-09-12T18:24:04;27.25;;;26.35;;
26820;SDS011;37186;51.394;5.454;2022-09-12T18:27:05;23.90;;;23.10;;
26820;SDS011;37186;51.394;5.454;2022-09-12T18:30:05;25.58;;;24.67;;
26820;SDS011;37186;51.394;5.454;2022-09-12T18:33:07;22.67;;;21.88;;
26820;SDS011;37186;51.394;5.454;2022-09-12T18:36:08;23.67;;;22.88;;
26820;SDS011;37186;51.394;5.454;2022-09-12T18:39:10;24.52;;;23.73;;
26820;SDS011;37186;51.394;5.454;2022-09-12T18:42:11;23.92;;;23.13;;
26820;SDS011;37186;51.394;5.454;2022-09-12T18:45:12;24.27;;;23.48;;
26820;SDS011;37186;51.394;5.454;2022-09-12T18:48:12;23.48;;;22.67;;
26820;SDS011;37186;51.394;5.454;2022-09-12T18:51:17;23.13;;;22.33;;
26820;SDS011;37186;51.394;5.454;2022-09-12T18:54:19;21.85;;;21.15;;
26820;SDS011;37186;51.394;5.454;2022-09-12T18:57:20;21.02;;;20.33;;
26820;SDS011;37186;51.394;5.454;2022-09-12T19:00:20;21.63;;;20.92;;
26820;SDS011;37186;51.394;5.454;2022-09-12T19:03:21;20.73;;;20.02;;
26820;SDS011;37186;51.394;5.454;2022-09-12T19:06:22;19.20;;;18.60;;
26820;SDS011;37186;51.394;5.454;2022-09-12T19:09:25;18.60;;;18.00;;
26820;SDS011;37186;51.394;5.454;2022-09-12T19:12:25;18.98;;;18.38;;
26820;SDS011;37186;51.394;5.454;2022-09-12T19:15:26;18.42;;;17.83;;
26820;SDS011;37186;51.394;5.454;2022-09-12T19:18:26;19.00;;;18.40;;
26820;SDS011;37186;51.394;5.454;2022-09-12T19:21:28;18.45;;;17.85;;
26820;SDS011;37186;51.394;5.454;2022-09-12T19:24:30;17.58;;;16.98;;
26820;SDS011;37186;51.394;5.454;2022-09-12T19:27:30;16.95;;;16.45;;
26820;SDS011;37186;51.394;5.454;2022-09-12T19:30:31;16.48;;;15.98;;
26820;SDS011;37186;51.394;5.454;2022-09-12T19:33:32;15.55;;;15.05;;
26820;SDS011;37186;51.394;5.454;2022-09-12T19:36:33;15.10;;;14.60;;
26820;SDS011;37186;51.394;5.454;2022-09-12T19:39:33;15.13;;;14.63;;
26820;SDS011;37186;51.394;5.454;2022-09-12T19:42:34;14.45;;;14.02;;
26820;SDS011;37186;51.394;5.454;2022-09-12T19:45:35;13.63;;;13.23;;
26820;SDS011;37186;51.394;5.454;2022-09-12T19:48:35;13.35;;;12.95;;
26820;SDS011;37186;51.394;5.454;2022-09-12T19:51:36;13.20;;;12.80;;
26820;SDS011;37186;51.394;5.454;2022-09-12T19:54:36;13.85;;;13.45;;